createdAt,value
2019-05-03T00:00:03.329Z,26.50
2019-05-03T00:03:12.011Z,26.90
2019-05-03T00:05:46.538Z,32.13
2019-05-03T00:08:15.789Z,33.02
2019-05-03T00:10:43.609Z,32.25
2019-05-03T00:13:12.469Z,29.50
2019-05-03T00:16:05.514Z,29.70
2019-05-03T00:18:34.772Z,29.55
2019-05-03T00:21:02.606Z,29.42
2019-05-03T00:23:32.245Z,31.40
2019-05-03T00:26:00.046Z,30.97
2019-05-03T00:28:28.353Z,30.30
2019-05-03T00:30:56.077Z,31.90
2019-05-03T00:33:24.560Z,30.85
2019-05-03T00:36:11.873Z,27.67
2019-05-03T00:38:41.878Z,31.73
2019-05-03T00:41:09.809Z,33.98
2019-05-03T00:43:37.462Z,29.00
2019-05-03T00:46:05.212Z,33.00
2019-05-03T00:48:33.921Z,32.08
2019-05-03T00:51:02.440Z,30.90
2019-05-03T00:53:31.777Z,31.75
2019-05-03T00:56:01.585Z,32.08
2019-05-03T00:58:31.674Z,34.88
2019-05-03T01:01:02.694Z,31.20
2019-05-03T01:03:32.419Z,30.90
2019-05-03T01:06:02.137Z,32.88
2019-05-03T01:08:29.869Z,38.30
2019-05-03T01:10:57.731Z,33.98
2019-05-03T01:13:25.395Z,34.95
2019-05-03T01:16:02.780Z,37.98
2019-05-03T01:18:32.510Z,32.38
2019-05-03T01:21:02.224Z,38.33
2019-05-03T01:23:30.181Z,34.60
2019-05-03T01:25:57.868Z,36.77
2019-05-03T01:28:25.707Z,32.05
2019-05-03T01:30:53.859Z,38.13
2019-05-03T01:33:22.639Z,32.00
2019-05-03T01:35:51.882Z,31.97
2019-05-03T01:38:19.831Z,32.25
2019-05-03T01:40:47.495Z,33.98
2019-05-03T01:43:15.261Z,31.20
2019-05-03T01:45:43.015Z,31.15
2019-05-03T01:48:41.500Z,32.55
2019-05-03T01:51:36.209Z,32.42
2019-05-03T01:54:05.565Z,31.12
2019-05-03T01:56:33.235Z,34.30
2019-05-03T01:59:01.889Z,30.10
2019-05-03T02:01:39.938Z,32.03
2019-05-03T02:04:17.678Z,30.25
2019-05-03T02:06:46.950Z,31.50
2019-05-03T02:09:14.710Z,32.13
2019-05-03T02:11:42.384Z,25.72
2019-05-03T02:14:12.212Z,33.88
2019-05-03T02:16:41.859Z,30.85
2019-05-03T02:19:09.372Z,28.12
2019-05-03T02:21:37.135Z,31.37
2019-05-03T02:24:04.871Z,30.70
2019-05-03T02:26:32.629Z,29.32
2019-05-03T02:29:01.853Z,28.25
2019-05-03T02:31:43.578Z,34.83
2019-05-03T02:34:12.557Z,28.12
2019-05-03T02:36:42.889Z,27.10
2019-05-03T02:39:13.639Z,32.00
2019-05-03T02:41:47.843Z,32.78
2019-05-03T02:44:15.603Z,29.10
2019-05-03T02:47:10.609Z,32.40
2019-05-03T02:49:45.535Z,24.12
2019-05-03T02:52:36.397Z,27.20
2019-05-03T02:55:08.372Z,30.50
2019-05-03T02:57:37.004Z,31.27
2019-05-03T03:00:07.242Z,31.52
2019-05-03T03:02:38.161Z,30.72
2019-05-03T03:05:06.927Z,31.60
2019-05-03T03:07:37.722Z,33.28
2019-05-03T03:10:06.891Z,34.20
2019-05-03T03:12:39.568Z,30.90
2019-05-03T03:15:09.223Z,32.35
2019-05-03T03:17:40.202Z,32.88
2019-05-03T03:20:09.678Z,39.00
2019-05-03T03:22:41.623Z,35.68
2019-05-03T03:25:17.218Z,36.20
2019-05-03T03:27:48.838Z,33.48
2019-05-03T03:30:38.808Z,37.08
2019-05-03T03:33:11.831Z,38.02
2019-05-03T03:35:41.969Z,34.55
2019-05-03T03:38:11.367Z,38.65
2019-05-03T03:40:39.349Z,34.48
2019-05-03T03:43:09.337Z,39.65
2019-05-03T03:45:39.794Z,38.63
2019-05-03T03:48:10.142Z,38.98
2019-05-03T03:50:40.674Z,40.40
2019-05-03T03:53:10.603Z,43.78
2019-05-03T03:55:41.643Z,37.03
2019-05-03T03:58:11.037Z,39.10
2019-05-03T04:00:39.326Z,44.83
2019-05-03T04:03:07.297Z,39.95
2019-05-03T04:05:35.967Z,37.90
2019-05-03T04:08:05.669Z,34.35
2019-05-03T04:10:35.249Z,38.78
2019-05-03T04:13:05.773Z,35.70
2019-05-03T04:15:56.157Z,40.85
2019-05-03T04:18:35.971Z,37.63
2019-05-03T04:21:05.617Z,39.00
2019-05-03T04:23:35.816Z,38.45
2019-05-03T04:26:06.778Z,40.35
2019-05-03T04:28:35.974Z,37.85
2019-05-03T04:31:06.014Z,36.03
2019-05-03T04:33:35.735Z,41.30
2019-05-03T04:36:05.401Z,43.17
2019-05-03T04:38:32.656Z,42.95
2019-05-03T04:41:00.327Z,38.05
2019-05-03T04:43:28.202Z,36.75
2019-05-03T04:46:08.692Z,39.92
2019-05-03T04:48:38.038Z,39.27
2019-05-03T04:51:06.115Z,39.88
2019-05-03T04:53:35.975Z,38.20
2019-05-03T04:56:05.887Z,40.08
2019-05-03T04:58:36.277Z,39.38
2019-05-03T05:01:06.254Z,40.67
2019-05-03T05:03:36.108Z,41.02
2019-05-03T05:06:06.002Z,37.10
2019-05-03T05:08:35.598Z,39.80
2019-05-03T05:11:05.190Z,38.13
2019-05-03T05:13:35.362Z,37.95
2019-05-03T05:16:02.269Z,37.38
2019-05-03T05:18:38.413Z,30.52
2019-05-03T05:21:12.101Z,32.80
2019-05-03T05:23:58.720Z,35.08
2019-05-03T05:26:35.469Z,33.58
2019-05-03T05:29:08.163Z,32.48
2019-05-03T05:31:37.431Z,30.10
2019-05-03T05:34:06.282Z,33.92
2019-05-03T05:36:34.846Z,31.77
2019-05-03T05:39:05.236Z,33.53
2019-05-03T05:41:34.762Z,26.95
2019-05-03T05:44:02.822Z,26.30
2019-05-03T05:46:35.896Z,28.35
2019-05-03T05:49:06.990Z,29.05
2019-05-03T05:51:36.385Z,29.07
2019-05-03T05:54:05.243Z,24.87
2019-05-03T05:56:44.661Z,28.77
2019-05-03T05:59:36.175Z,25.23
2019-05-03T06:02:08.318Z,26.87
2019-05-03T06:04:36.223Z,24.18
2019-05-03T06:07:26.473Z,26.70
2019-05-03T06:10:07.766Z,26.52
2019-05-03T06:12:54.565Z,24.98
2019-05-03T06:15:52.563Z,27.65
2019-05-03T06:18:26.946Z,25.80
2019-05-03T06:21:15.806Z,25.30
2019-05-03T06:23:51.558Z,26.20
2019-05-03T06:26:58.610Z,27.17
2019-05-03T06:29:27.922Z,26.87
2019-05-03T06:32:27.422Z,26.10
2019-05-03T06:34:56.743Z,22.35
2019-05-03T06:37:26.685Z,25.60
2019-05-03T06:39:55.989Z,27.05
2019-05-03T06:42:25.513Z,26.70
2019-05-03T06:44:54.617Z,23.30
2019-05-03T06:47:22.621Z,23.38
2019-05-03T06:49:50.302Z,23.55
2019-05-03T06:52:19.887Z,25.05
2019-05-03T06:54:47.997Z,25.48
2019-05-03T06:57:17.274Z,21.70
2019-05-03T06:59:54.983Z,19.55
2019-05-03T07:02:39.912Z,17.35
2019-05-03T07:05:17.309Z,17.00
2019-05-03T07:07:54.607Z,16.52
2019-05-03T07:10:30.230Z,14.45
2019-05-03T07:13:04.945Z,14.10
2019-05-03T07:15:34.985Z,11.97
2019-05-03T07:18:02.763Z,12.95
2019-05-03T07:20:44.608Z,12.33
2019-05-03T07:23:15.595Z,13.43
2019-05-03T07:25:44.786Z,19.80
2019-05-03T07:28:14.741Z,14.93
2019-05-03T07:30:42.207Z,12.33
2019-05-03T07:33:15.666Z,13.62
2019-05-03T07:35:44.968Z,13.05
2019-05-03T07:38:12.717Z,13.25
2019-05-03T07:40:40.650Z,13.55
2019-05-03T07:43:08.408Z,16.25
2019-05-03T07:45:36.083Z,15.30
2019-05-03T07:48:04.644Z,16.00
2019-05-03T07:50:33.312Z,17.60
2019-05-03T07:53:02.081Z,20.57
2019-05-03T07:55:47.791Z,19.12
2019-05-03T07:58:19.673Z,17.20
2019-05-03T08:01:02.923Z,17.55
2019-05-03T08:03:20.474Z,19.62
2019-05-03T08:05:48.277Z,21.85
2019-05-03T08:08:16.098Z,20.25
2019-05-03T08:10:45.036Z,18.82
2019-05-03T08:13:14.854Z,18.07
2019-05-03T08:15:42.680Z,18.52
2019-05-03T08:18:10.351Z,18.52
2019-05-03T08:20:38.129Z,17.87
2019-05-03T08:23:05.905Z,17.10
2019-05-03T08:25:35.414Z,22.62
2019-05-03T08:28:05.170Z,18.45
2019-05-03T08:30:44.504Z,14.95
2019-05-03T08:33:24.870Z,13.28
2019-05-03T08:35:55.489Z,15.93
2019-05-03T08:38:25.602Z,14.30
2019-05-03T08:40:54.875Z,17.37
2019-05-03T08:43:25.155Z,17.57
2019-05-03T08:45:52.828Z,14.40
2019-05-03T08:48:20.517Z,13.70
2019-05-03T08:50:48.379Z,14.05
2019-05-03T08:53:16.081Z,14.10
2019-05-03T08:55:44.957Z,14.20
2019-05-03T08:58:12.883Z,14.98
2019-05-03T09:00:42.497Z,16.93
2019-05-03T09:03:10.270Z,16.32
2019-05-03T09:05:38.026Z,16.93
2019-05-03T09:08:05.911Z,15.80
2019-05-03T09:10:49.259Z,17.02
2019-05-03T09:13:19.901Z,14.93
2019-05-03T09:15:49.695Z,14.93
2019-05-03T09:18:19.002Z,13.45
2019-05-03T09:20:46.693Z,14.75
2019-05-03T09:23:15.002Z,11.40
2019-05-03T09:25:42.994Z,12.13
2019-05-03T09:28:10.951Z,11.90
2019-05-03T09:30:38.748Z,11.63
2019-05-03T09:33:09.039Z,11.10
2019-05-03T09:35:36.234Z,10.88
2019-05-03T09:38:05.736Z,9.25
2019-05-03T09:40:35.196Z,9.28
2019-05-03T09:43:04.499Z,8.88
2019-05-03T09:45:32.442Z,8.80
2019-05-03T09:48:00.250Z,7.70
2019-05-03T09:50:28.219Z,8.63
2019-05-03T09:52:56.079Z,7.20
2019-05-03T09:55:41.724Z,9.30
2019-05-03T09:58:09.517Z,8.50
2019-05-03T10:00:37.323Z,8.65
2019-05-03T10:03:05.642Z,7.95
2019-05-03T10:05:35.094Z,7.75
2019-05-03T10:08:05.094Z,7.55
2019-05-03T10:10:52.304Z,8.33
2019-05-03T10:13:23.794Z,7.55
2019-05-03T10:15:51.270Z,7.47
2019-05-03T10:18:18.942Z,6.95
2019-05-03T10:20:46.736Z,8.25
2019-05-03T10:23:36.387Z,7.33
2019-05-03T10:26:05.307Z,7.22
2019-05-03T10:28:33.394Z,6.85
2019-05-03T10:31:01.323Z,7.17
2019-05-03T10:33:35.620Z,7.20
2019-05-03T10:36:05.571Z,7.17
2019-05-03T10:38:33.468Z,7.25
2019-05-03T10:41:01.149Z,7.60
2019-05-03T10:43:28.954Z,7.17
2019-05-03T10:45:56.658Z,7.62
2019-05-03T10:48:24.888Z,8.53
2019-05-03T10:50:53.070Z,8.78
2019-05-03T10:53:25.593Z,8.63
2019-05-03T10:56:13.854Z,10.08
2019-05-03T10:58:46.327Z,9.33
2019-05-03T11:01:17.432Z,11.73
2019-05-03T11:03:46.818Z,8.53
2019-05-03T11:06:14.882Z,8.60
2019-05-03T11:08:42.748Z,8.55
2019-05-03T11:11:10.568Z,8.05
2019-05-03T11:13:38.430Z,8.58
2019-05-03T11:16:06.834Z,7.70
2019-05-03T11:18:34.647Z,7.70
2019-05-03T11:21:02.397Z,9.10
2019-05-03T11:23:30.029Z,8.43
2019-05-03T11:25:57.795Z,8.60
2019-05-03T11:28:26.020Z,7.95
2019-05-03T11:31:01.375Z,8.60
2019-05-03T11:33:30.425Z,8.15
2019-05-03T11:36:19.291Z,7.22
2019-05-03T11:38:48.630Z,6.53
2019-05-03T11:41:29.208Z,5.78
2019-05-03T11:43:46.036Z,6.25
2019-05-03T11:46:13.812Z,4.80
2019-05-03T11:48:41.507Z,6.42
2019-05-03T11:51:09.250Z,6.25
2019-05-03T11:53:39.673Z,6.05
2019-05-03T11:56:07.463Z,5.40
2019-05-03T11:58:35.167Z,6.60
2019-05-03T12:01:19.551Z,6.95
2019-05-03T12:03:49.965Z,6.45
2019-05-03T12:06:17.981Z,5.42
2019-05-03T12:08:45.681Z,6.33
2019-05-03T12:11:15.090Z,6.30
2019-05-03T12:13:45.443Z,6.58
2019-05-03T12:16:19.406Z,5.33
2019-05-03T12:18:52.211Z,6.30
2019-05-03T12:21:13.703Z,5.70
2019-05-03T12:23:42.688Z,8.53
2019-05-03T12:26:13.707Z,5.70
2019-05-03T12:28:41.493Z,5.95
2019-05-03T12:31:24.251Z,6.15
2019-05-03T12:33:38.909Z,7.03
2019-05-03T12:36:06.758Z,7.72
2019-05-03T12:38:35.016Z,5.45
2019-05-03T12:41:05.344Z,5.60
2019-05-03T12:43:32.687Z,5.58
2019-05-03T12:46:00.516Z,5.90
2019-05-03T12:48:28.306Z,5.72
2019-05-03T12:50:56.378Z,6.35
2019-05-03T12:53:24.697Z,5.95
2019-05-03T12:55:52.529Z,5.47
2019-05-03T12:58:22.706Z,5.67
2019-05-03T13:01:04.954Z,6.55
2019-05-03T13:03:40.792Z,6.50
2019-05-03T13:06:10.115Z,5.95
2019-05-03T13:08:41.230Z,5.53
2019-05-03T13:11:09.262Z,5.35
2019-05-03T13:13:37.128Z,6.58
2019-05-03T13:16:05.733Z,4.80
2019-05-03T13:18:35.365Z,4.90
2019-05-03T13:21:05.853Z,4.60
2019-05-03T13:23:35.374Z,5.28
2019-05-03T13:26:05.238Z,4.97
2019-05-03T13:28:32.590Z,5.53
2019-05-03T13:31:00.399Z,5.53
2019-05-03T13:33:28.207Z,4.60
2019-05-03T13:35:56.009Z,4.47
2019-05-03T13:38:25.043Z,5.05
2019-05-03T13:40:54.355Z,4.33
2019-05-03T13:43:22.273Z,4.72
2019-05-03T13:45:50.032Z,4.90
2019-05-03T13:48:20.918Z,4.58
2019-05-03T13:50:47.478Z,5.33
2019-05-03T13:53:16.123Z,4.55
2019-05-03T13:55:44.551Z,5.90
2019-05-03T13:58:14.542Z,3.60
2019-05-03T14:00:42.092Z,3.25
2019-05-03T14:03:09.786Z,2.98
2019-05-03T14:05:37.576Z,2.50
2019-05-03T14:08:05.391Z,2.47
2019-05-03T14:10:33.199Z,2.50
2019-05-03T14:13:00.914Z,2.90
2019-05-03T14:15:28.547Z,4.37
2019-05-03T14:17:56.265Z,4.05
2019-05-03T14:20:46.558Z,8.98
2019-05-03T14:23:15.960Z,4.05
2019-05-03T14:25:44.640Z,4.25
2019-05-03T14:28:14.505Z,3.20
2019-05-03T14:30:42.388Z,3.25
2019-05-03T14:33:10.614Z,4.15
2019-05-03T14:35:38.411Z,3.62
2019-05-03T14:38:06.111Z,2.65
2019-05-03T14:40:33.801Z,2.95
2019-05-03T14:43:01.638Z,3.10
2019-05-03T14:45:29.645Z,4.17
2019-05-03T14:47:57.664Z,2.65
2019-05-03T14:50:25.605Z,3.45
2019-05-03T14:52:56.734Z,3.17
2019-05-03T14:55:36.204Z,4.12
2019-05-03T14:58:25.948Z,5.65
2019-05-03T15:01:02.218Z,4.20
2019-05-03T15:03:31.530Z,7.72
2019-05-03T15:06:01.534Z,6.10
2019-05-03T15:08:29.399Z,4.80
2019-05-03T15:10:57.108Z,5.22
2019-05-03T15:13:25.252Z,5.50
2019-05-03T15:15:54.686Z,5.58
2019-05-03T15:18:22.768Z,5.62
2019-05-03T15:20:50.466Z,8.38
2019-05-03T15:23:18.182Z,4.83
2019-05-03T15:25:45.873Z,5.60
2019-05-03T15:28:13.661Z,5.28
2019-05-03T15:30:41.464Z,6.62
2019-05-03T15:33:09.279Z,4.90
2019-05-03T15:35:37.063Z,4.47
2019-05-03T15:38:05.553Z,4.60
2019-05-03T15:40:33.591Z,4.85
2019-05-03T15:43:18.361Z,4.83
2019-05-03T15:46:05.213Z,4.60
2019-05-03T15:48:39.279Z,4.40
2019-05-03T15:51:08.675Z,3.80
2019-05-03T15:53:36.552Z,4.20
2019-05-03T15:56:05.388Z,4.20
2019-05-03T15:58:33.366Z,6.55
2019-05-03T16:01:01.394Z,5.08
2019-05-03T16:03:29.394Z,5.03
2019-05-03T16:05:57.074Z,6.25
2019-05-03T16:08:24.967Z,3.50
2019-05-03T16:10:54.712Z,3.47
2019-05-03T16:13:22.520Z,2.72
2019-05-03T16:15:50.297Z,3.70
2019-05-03T16:18:18.014Z,3.58
2019-05-03T16:20:45.783Z,3.40
2019-05-03T16:23:15.265Z,5.35
2019-05-03T16:25:44.870Z,5.35
2019-05-03T16:28:20.346Z,5.40
2019-05-03T16:31:05.847Z,5.20
2019-05-03T16:33:35.150Z,5.37
2019-05-03T16:36:03.101Z,5.62
2019-05-03T16:38:30.913Z,6.15
2019-05-03T16:40:58.728Z,5.83
2019-05-03T16:43:26.455Z,5.17
2019-05-03T16:45:55.152Z,4.85
2019-05-03T16:48:24.713Z,6.40
2019-05-03T16:50:52.790Z,5.85
2019-05-03T16:53:20.474Z,4.62
2019-05-03T16:55:48.255Z,6.03
2019-05-03T16:58:16.997Z,5.22
2019-05-03T17:00:45.194Z,5.10
2019-05-03T17:03:14.711Z,5.10
2019-05-03T17:06:01.504Z,5.85
2019-05-03T17:08:59.282Z,10.25
2019-05-03T17:11:28.693Z,5.12
2019-05-03T17:13:57.664Z,5.05
2019-05-03T17:16:25.713Z,5.25
2019-05-03T17:18:55.083Z,5.30
2019-05-03T17:21:23.054Z,5.12
2019-05-03T17:23:50.779Z,4.62
2019-05-03T17:26:18.591Z,4.45
2019-05-03T17:28:46.321Z,4.65
2019-05-03T17:31:14.199Z,3.87
2019-05-03T17:33:51.479Z,4.35
2019-05-03T17:36:11.557Z,4.53
2019-05-03T17:38:39.494Z,4.20
2019-05-03T17:41:21.325Z,3.72
2019-05-03T17:43:57.463Z,3.83
2019-05-03T17:46:26.847Z,3.92
2019-05-03T17:48:54.790Z,3.70
2019-05-03T17:51:40.929Z,4.00
2019-05-03T17:54:29.747Z,4.47
2019-05-03T17:57:04.609Z,3.80
2019-05-03T17:59:38.306Z,4.12
2019-05-03T18:02:26.118Z,4.42
2019-05-03T18:05:14.976Z,3.77
2019-05-03T18:08:03.899Z,4.55
2019-05-03T18:10:34.244Z,3.98
2019-05-03T18:13:03.719Z,4.60
2019-05-03T18:15:31.520Z,4.60
2019-05-03T18:17:59.597Z,4.78
2019-05-03T18:20:27.345Z,5.45
2019-05-03T18:22:55.155Z,3.65
2019-05-03T18:25:25.031Z,4.30
2019-05-03T18:28:08.452Z,4.30
2019-05-03T18:30:36.224Z,5.05
2019-05-03T18:33:04.832Z,4.58
2019-05-03T18:35:32.811Z,3.85
2019-05-03T18:38:00.945Z,4.55
2019-05-03T18:40:30.403Z,4.05
2019-05-03T18:43:07.421Z,4.03
2019-05-03T18:45:56.225Z,3.65
2019-05-03T18:48:26.456Z,4.70
2019-05-03T18:50:54.819Z,5.65
2019-05-03T18:53:22.733Z,4.20
2019-05-03T18:55:50.563Z,4.53
2019-05-03T18:58:18.380Z,4.45
2019-05-03T19:00:46.166Z,3.10
2019-05-03T19:03:14.029Z,3.85
2019-05-03T19:05:45.358Z,4.30
2019-05-03T19:08:34.952Z,4.47
2019-05-03T19:11:09.672Z,3.50
2019-05-03T19:13:55.268Z,3.55
2019-05-03T19:16:41.293Z,6.92
2019-05-03T19:19:11.261Z,4.15
2019-05-03T19:21:40.025Z,4.03
2019-05-03T19:24:07.927Z,3.90
2019-05-03T19:26:35.695Z,3.90
2019-05-03T19:29:04.428Z,4.17
2019-05-03T19:31:32.825Z,3.42
2019-05-03T19:34:00.763Z,4.50
2019-05-03T19:36:28.595Z,4.50
2019-05-03T19:38:56.445Z,3.98
2019-05-03T19:41:25.129Z,5.30
2019-05-03T19:43:54.795Z,6.03
2019-05-03T19:46:24.678Z,4.95
2019-05-03T19:48:54.578Z,5.42
2019-05-03T19:51:22.191Z,5.30
2019-05-03T19:53:54.905Z,8.30
2019-05-03T19:56:22.930Z,5.95
2019-05-03T19:58:55.218Z,5.28
2019-05-03T20:01:35.309Z,5.37
2019-05-03T20:04:30.230Z,4.35
2019-05-03T20:07:06.937Z,4.80
2019-05-03T20:09:36.302Z,6.17
2019-05-03T20:12:04.588Z,5.33
2019-05-03T20:14:32.476Z,4.75
2019-05-03T20:17:00.264Z,4.83
2019-05-03T20:19:28.186Z,5.40
2019-05-03T20:21:56.664Z,6.15
2019-05-03T20:24:25.324Z,6.17
2019-05-03T20:26:53.430Z,5.00
2019-05-03T20:29:21.256Z,5.92
2019-05-03T20:31:49.134Z,5.78
2019-05-03T20:34:16.890Z,5.25
2019-05-03T20:36:45.341Z,6.20
2019-05-03T20:39:14.854Z,6.00
2019-05-03T20:41:42.806Z,6.65
2019-05-03T20:44:35.973Z,5.97
2019-05-03T20:47:19.270Z,6.00
2019-05-03T20:50:08.127Z,5.78
2019-05-03T20:52:37.556Z,6.72
2019-05-03T20:55:05.268Z,6.12
2019-05-03T20:57:35.185Z,6.05
2019-05-03T21:00:04.538Z,5.75
2019-05-03T21:02:34.483Z,6.70
2019-05-03T21:05:04.386Z,7.62
2019-05-03T21:07:35.054Z,8.50
2019-05-03T21:10:03.477Z,6.65
2019-05-03T21:12:32.341Z,6.45
2019-05-03T21:15:00.153Z,5.65
2019-05-03T21:17:49.070Z,6.00
2019-05-03T21:20:45.031Z,6.53
2019-05-03T21:23:15.296Z,5.90
2019-05-03T21:26:09.444Z,7.70
2019-05-03T21:28:32.050Z,7.22
2019-05-03T21:30:59.761Z,7.30
2019-05-03T21:33:27.626Z,8.85
2019-05-03T21:35:55.743Z,7.87
2019-05-03T21:38:24.621Z,7.65
2019-05-03T21:40:54.544Z,8.63
2019-05-03T21:43:22.361Z,7.47
2019-05-03T21:45:55.805Z,7.60
2019-05-03T21:48:28.703Z,8.23
2019-05-03T21:50:58.072Z,7.90
2019-05-03T21:53:25.817Z,8.20
2019-05-03T21:55:53.592Z,7.85
2019-05-03T21:58:21.379Z,8.00
2019-05-03T22:01:00.334Z,10.13
2019-05-03T22:03:29.684Z,7.87
2019-05-03T22:05:58.073Z,7.85
2019-05-03T22:08:32.105Z,6.72
2019-05-03T22:11:01.528Z,6.87
2019-05-03T22:13:29.545Z,6.22
2019-05-03T22:16:10.510Z,5.42
2019-05-03T22:18:40.277Z,6.35
2019-05-03T22:21:16.865Z,5.03
2019-05-03T22:24:02.150Z,5.55
2019-05-03T22:26:49.990Z,4.97
2019-05-03T22:29:19.393Z,4.90
2019-05-03T22:31:47.369Z,5.08
2019-05-03T22:34:15.244Z,4.67
2019-05-03T22:36:44.388Z,4.58
2019-05-03T22:39:12.297Z,4.15
2019-05-03T22:41:40.145Z,5.37
2019-05-03T22:44:07.840Z,4.17
2019-05-03T22:46:35.788Z,4.72
2019-05-03T22:49:04.905Z,4.72
2019-05-03T22:51:34.567Z,4.47
2019-05-03T22:54:02.440Z,5.53
2019-05-03T22:56:30.195Z,4.65
2019-05-03T22:58:57.888Z,4.30
2019-05-03T23:01:25.697Z,4.75
2019-05-03T23:03:55.096Z,4.10
2019-05-03T23:06:25.053Z,4.08
2019-05-03T23:08:55.974Z,4.37
2019-05-03T23:11:24.420Z,4.58
2019-05-03T23:14:00.774Z,4.90
2019-05-03T23:16:30.758Z,4.40
2019-05-03T23:18:59.160Z,4.10
2019-05-03T23:21:30.533Z,4.72
2019-05-03T23:23:59.939Z,4.53
2019-05-03T23:26:27.951Z,5.65
2019-05-03T23:28:55.701Z,4.30
2019-05-03T23:31:25.179Z,4.35
2019-05-03T23:33:54.477Z,4.70
2019-05-03T23:36:32.737Z,4.00
2019-05-03T23:38:51.929Z,3.98
2019-05-03T23:41:19.613Z,4.28
2019-05-03T23:43:47.377Z,4.70
2019-05-03T23:46:16.906Z,4.40
2019-05-03T23:48:46.390Z,4.00
2019-05-03T23:51:44.313Z,4.65
2019-05-03T23:54:14.954Z,4.25
2019-05-03T23:56:43.122Z,4.42
2019-05-03T23:59:10.889Z,4.50
